createdAt,value
2023-04-07T00:00:38.047Z,3.48
2023-04-07T00:01:39.640Z,3.53
2023-04-07T00:02:43.093Z,3.59
2023-04-07T00:03:46.110Z,3.59
2023-04-07T00:04:47.793Z,3.57
2023-04-07T00:05:49.527Z,3.54
2023-04-07T00:06:51.095Z,3.57
2023-04-07T00:07:56.877Z,3.61
2023-04-07T00:08:59.015Z,3.60
2023-04-07T00:10:00.531Z,3.62
2023-04-07T00:11:02.091Z,3.68
2023-04-07T00:12:03.742Z,3.66
2023-04-07T00:13:05.295Z,3.66
2023-04-07T00:14:06.851Z,3.68
2023-04-07T00:15:08.977Z,3.65
2023-04-07T00:16:10.671Z,3.59
2023-04-07T00:17:12.298Z,3.57
2023-04-07T00:18:13.843Z,3.61
2023-04-07T00:19:15.384Z,3.60
2023-04-07T00:20:16.883Z,3.62
2023-04-07T00:21:18.424Z,3.59
2023-04-07T00:22:19.955Z,3.49
2023-04-07T00:23:21.475Z,3.33
2023-04-07T00:24:33.450Z,3.23
2023-04-07T00:25:36.048Z,3.23
2023-04-07T00:26:37.677Z,3.21
2023-04-07T00:27:39.245Z,3.12
2023-04-07T00:28:40.905Z,3.13
2023-04-07T00:29:42.865Z,3.13
2023-04-07T00:30:44.427Z,3.14
2023-04-07T00:31:46.027Z,3.23
2023-04-07T00:32:47.625Z,3.26
2023-04-07T00:33:49.192Z,3.24
2023-04-07T00:34:50.780Z,3.30
2023-04-07T00:35:52.348Z,3.20
2023-04-07T00:36:54.067Z,3.23
2023-04-07T00:37:55.625Z,3.25
2023-04-07T00:38:57.262Z,3.13
2023-04-07T00:39:58.756Z,3.14
2023-04-07T00:41:00.760Z,3.09
2023-04-07T00:42:04.159Z,3.12
2023-04-07T00:43:05.705Z,3.06
2023-04-07T00:44:07.277Z,3.08
2023-04-07T00:45:09.269Z,3.09
2023-04-07T00:46:10.851Z,3.17
2023-04-07T00:47:12.615Z,3.22
2023-04-07T00:48:14.913Z,3.12
2023-04-07T00:49:17.016Z,3.08
2023-04-07T00:50:19.109Z,3.07
2023-04-07T00:51:21.435Z,3.11
2023-04-07T00:52:24.298Z,2.99
2023-04-07T00:53:26.107Z,2.98
2023-04-07T00:54:27.908Z,2.99
2023-04-07T00:55:29.451Z,2.93
2023-04-07T00:56:31.061Z,2.92
2023-04-07T00:57:32.890Z,2.91
2023-04-07T00:58:34.449Z,2.90
2023-04-07T00:59:36.924Z,2.78
2023-04-07T01:00:45.933Z,2.78
2023-04-07T01:01:55.323Z,2.84
2023-04-07T01:03:09.355Z,2.85
2023-04-07T01:04:35.234Z,2.92
2023-04-07T01:05:46.426Z,2.95
2023-04-07T01:06:51.392Z,2.89
2023-04-07T01:08:19.394Z,2.74
2023-04-07T01:09:30.397Z,2.78
2023-04-07T01:10:52.481Z,2.71
2023-04-07T01:12:05.088Z,2.66
2023-04-07T01:13:30.664Z,2.73
2023-04-07T01:14:51.365Z,2.79
2023-04-07T01:16:24.020Z,2.85
2023-04-07T01:17:27.908Z,2.87
2023-04-07T01:18:32.470Z,2.87
2023-04-07T01:19:43.247Z,2.84
2023-04-07T01:20:51.333Z,2.82
2023-04-07T01:21:56.060Z,2.76
2023-04-07T01:23:04.020Z,2.75
2023-04-07T01:24:14.508Z,2.83
2023-04-07T01:26:04.157Z,2.71
2023-04-07T01:27:33.284Z,2.77
2023-04-07T01:28:44.009Z,2.62
2023-04-07T01:29:46.428Z,2.69
2023-04-07T01:30:48.971Z,2.74
2023-04-07T01:31:51.219Z,2.70
2023-04-07T01:32:55.687Z,2.63
2023-04-07T01:34:01.034Z,2.72
2023-04-07T01:35:04.454Z,2.73
2023-04-07T01:36:07.778Z,2.61
2023-04-07T01:37:10.464Z,2.60
2023-04-07T01:38:13.795Z,2.66
2023-04-07T01:39:15.997Z,2.65
2023-04-07T01:40:18.073Z,2.63
2023-04-07T01:41:20.760Z,2.54
2023-04-07T01:42:23.043Z,2.62
2023-04-07T01:43:26.169Z,2.71
2023-04-07T01:44:28.985Z,2.79
2023-04-07T01:45:34.344Z,2.82
2023-04-07T01:46:36.191Z,2.86
2023-04-07T01:47:39.236Z,2.82
2023-04-07T01:48:42.157Z,2.78
2023-04-07T01:49:45.813Z,2.79
2023-04-07T01:50:48.310Z,2.82
2023-04-07T01:51:51.115Z,2.84
2023-04-07T01:52:53.657Z,2.82
2023-04-07T01:53:56.058Z,2.79
2023-04-07T01:54:58.344Z,2.67
2023-04-07T01:56:00.766Z,2.64
2023-04-07T01:57:02.301Z,2.63
2023-04-07T01:58:05.416Z,2.68
2023-04-07T01:59:07.413Z,2.70
2023-04-07T02:00:09.755Z,2.65
2023-04-07T02:01:17.095Z,2.65
2023-04-07T02:02:19.108Z,2.67
2023-04-07T02:03:27.919Z,2.70
2023-04-07T02:04:35.405Z,2.69
2023-04-07T02:05:38.920Z,2.69
2023-04-07T02:06:53.026Z,2.65
2023-04-07T02:08:03.778Z,2.76
2023-04-07T02:09:10.608Z,2.69
2023-04-07T02:10:15.474Z,2.73
2023-04-07T02:11:20.399Z,2.77
2023-04-07T02:12:23.856Z,2.81
2023-04-07T02:13:37.699Z,2.85
2023-04-07T02:14:40.292Z,2.91
2023-04-07T02:15:44.749Z,2.95
2023-04-07T02:16:49.046Z,2.92
2023-04-07T02:17:53.378Z,2.88
2023-04-07T02:18:55.056Z,2.89
2023-04-07T02:19:59.088Z,2.92
2023-04-07T02:21:02.240Z,2.96
2023-04-07T02:22:05.157Z,2.99
2023-04-07T02:23:10.094Z,3.00
2023-04-07T02:24:12.186Z,3.01
2023-04-07T02:25:25.436Z,2.99
2023-04-07T02:26:29.137Z,2.88
2023-04-07T02:27:31.870Z,2.75
2023-04-07T02:28:33.396Z,2.78
2023-04-07T02:29:34.981Z,2.89
2023-04-07T02:30:36.568Z,2.93
2023-04-07T02:31:39.158Z,2.99
2023-04-07T02:32:40.759Z,3.02
2023-04-07T02:33:42.315Z,2.91
2023-04-07T02:34:43.874Z,2.85
2023-04-07T02:35:45.442Z,2.87
2023-04-07T02:36:47.050Z,2.92
2023-04-07T02:37:49.296Z,2.91
2023-04-07T02:38:50.838Z,2.93
2023-04-07T02:39:52.385Z,2.98
2023-04-07T02:40:55.047Z,2.98
2023-04-07T02:41:56.606Z,3.02
2023-04-07T02:42:58.990Z,3.02
2023-04-07T02:44:00.530Z,3.00
2023-04-07T02:45:02.936Z,3.01
2023-04-07T02:46:05.458Z,3.04
2023-04-07T02:47:07.082Z,3.05
2023-04-07T02:48:08.638Z,2.97
2023-04-07T02:49:11.788Z,3.00
2023-04-07T02:50:13.324Z,2.95
2023-04-07T02:51:14.859Z,2.93
2023-04-07T02:52:16.435Z,2.90
2023-04-07T02:53:17.992Z,2.90
2023-04-07T02:54:19.541Z,2.95
2023-04-07T02:55:21.197Z,2.95
2023-04-07T02:56:22.751Z,2.98
2023-04-07T02:57:24.355Z,2.97
2023-04-07T02:58:29.412Z,2.89
2023-04-07T02:59:31.889Z,2.89
2023-04-07T03:00:34.418Z,2.90
2023-04-07T03:01:48.921Z,2.85
2023-04-07T03:02:51.614Z,2.73
2023-04-07T03:03:54.209Z,2.67
2023-04-07T03:04:59.018Z,2.71
2023-04-07T03:06:03.050Z,2.65
2023-04-07T03:07:06.106Z,2.74
2023-04-07T03:08:08.256Z,2.73
2023-04-07T03:09:09.828Z,2.76
2023-04-07T03:10:11.395Z,2.80
2023-04-07T03:11:12.989Z,2.83
2023-04-07T03:12:14.610Z,2.77
2023-04-07T03:13:16.205Z,2.73
2023-04-07T03:14:17.861Z,2.74
2023-04-07T03:15:22.239Z,2.78
2023-04-07T03:16:25.300Z,2.75
2023-04-07T03:17:35.044Z,2.68
2023-04-07T03:18:36.606Z,2.65
2023-04-07T03:19:40.006Z,2.70
2023-04-07T03:20:43.279Z,2.69
2023-04-07T03:21:46.569Z,2.67
2023-04-07T03:22:48.077Z,2.70
2023-04-07T03:24:00.589Z,2.65
2023-04-07T03:25:02.127Z,2.65
2023-04-07T03:26:03.693Z,2.71
2023-04-07T03:27:09.342Z,2.62
2023-04-07T03:28:16.201Z,2.56
2023-04-07T03:29:17.725Z,2.58
2023-04-07T03:30:19.297Z,2.48
2023-04-07T03:31:21.711Z,2.46
2023-04-07T03:32:25.609Z,2.49
2023-04-07T03:33:27.275Z,2.55
2023-04-07T03:34:29.924Z,2.57
2023-04-07T03:35:33.379Z,2.63
2023-04-07T03:36:34.970Z,2.69
2023-04-07T03:37:39.401Z,2.72
2023-04-07T03:38:50.124Z,2.64
2023-04-07T03:39:53.310Z,2.47
2023-04-07T03:41:00.008Z,2.42
2023-04-07T03:42:01.571Z,2.38
2023-04-07T03:43:06.315Z,2.29
2023-04-07T03:44:07.854Z,2.34
2023-04-07T03:45:11.972Z,2.19
2023-04-07T03:46:19.935Z,2.20
2023-04-07T03:47:21.550Z,2.17
2023-04-07T03:48:29.270Z,2.23
2023-04-07T03:49:44.039Z,2.29
2023-04-07T03:50:46.133Z,2.37
2023-04-07T03:51:51.096Z,2.37
2023-04-07T03:52:53.956Z,2.37
2023-04-07T03:53:59.830Z,2.38
2023-04-07T03:55:08.961Z,2.45
2023-04-07T03:56:10.672Z,2.50
2023-04-07T03:57:19.322Z,2.50
2023-04-07T03:58:23.103Z,2.55
2023-04-07T03:59:25.193Z,2.50
2023-04-07T04:00:34.435Z,2.49
2023-04-07T04:01:41.841Z,2.56
2023-04-07T04:02:49.864Z,2.56
2023-04-07T04:03:54.825Z,2.56
2023-04-07T04:04:59.507Z,2.51
2023-04-07T04:06:01.480Z,2.49
2023-04-07T04:07:05.183Z,2.57
2023-04-07T04:08:20.420Z,2.51
2023-04-07T04:09:22.131Z,2.49
2023-04-07T04:10:24.170Z,2.47
2023-04-07T04:11:28.404Z,2.51
2023-04-07T04:12:36.698Z,2.51
2023-04-07T04:13:42.982Z,2.57
2023-04-07T04:14:44.514Z,2.45
2023-04-07T04:15:48.320Z,2.46
2023-04-07T04:16:51.215Z,2.50
2023-04-07T04:18:18.636Z,2.56
2023-04-07T04:19:20.369Z,2.59
2023-04-07T04:20:22.449Z,2.61
2023-04-07T04:21:25.648Z,2.60
2023-04-07T04:22:27.168Z,2.59
2023-04-07T04:23:32.044Z,2.60
2023-04-07T04:24:34.377Z,2.63
2023-04-07T04:25:37.369Z,2.66
2023-04-07T04:26:41.396Z,2.66
2023-04-07T04:27:46.636Z,2.70
2023-04-07T04:28:55.581Z,2.61
2023-04-07T04:29:57.542Z,2.50
2023-04-07T04:31:09.258Z,2.50
2023-04-07T04:32:15.421Z,2.46
2023-04-07T04:33:18.448Z,2.46
2023-04-07T04:34:29.529Z,2.46
2023-04-07T04:35:31.770Z,2.50
2023-04-07T04:36:41.278Z,2.52
2023-04-07T04:37:42.827Z,2.58
2023-04-07T04:38:45.936Z,2.46
2023-04-07T04:39:51.384Z,2.52
2023-04-07T04:40:56.177Z,2.41
2023-04-07T04:42:02.040Z,2.42
2023-04-07T04:43:08.328Z,2.49
2023-04-07T04:44:11.988Z,2.47
2023-04-07T04:45:16.010Z,2.48
2023-04-07T04:46:21.223Z,2.32
2023-04-07T04:47:24.329Z,2.29
2023-04-07T04:48:26.192Z,2.34
2023-04-07T04:49:27.930Z,2.31
2023-04-07T04:50:32.565Z,2.33
2023-04-07T04:51:36.243Z,2.41
2023-04-07T04:52:46.303Z,2.37
2023-04-07T04:53:54.790Z,2.28
2023-04-07T04:54:58.278Z,2.29
2023-04-07T04:56:02.101Z,2.37
2023-04-07T04:57:19.621Z,2.46
2023-04-07T04:58:21.187Z,2.48
2023-04-07T04:59:27.174Z,2.38
2023-04-07T05:00:35.987Z,2.37
2023-04-07T05:01:40.966Z,2.47
2023-04-07T05:02:46.610Z,2.59
2023-04-07T05:03:48.462Z,2.59
2023-04-07T05:04:55.806Z,2.56
2023-04-07T05:06:01.534Z,2.59
2023-04-07T05:07:03.114Z,2.45
2023-04-07T05:08:06.438Z,2.45
2023-04-07T05:09:10.946Z,2.52
2023-04-07T05:10:17.505Z,2.61
2023-04-07T05:11:23.777Z,2.44
2023-04-07T05:12:27.748Z,2.51
2023-04-07T05:13:35.571Z,2.35
2023-04-07T05:14:38.778Z,2.33
2023-04-07T05:15:42.827Z,2.29
2023-04-07T05:16:46.642Z,2.37
2023-04-07T05:17:53.462Z,2.48
2023-04-07T05:18:59.709Z,2.51
2023-04-07T05:20:02.325Z,2.53
2023-04-07T05:21:10.715Z,2.62
2023-04-07T05:22:12.292Z,2.60
2023-04-07T05:23:20.606Z,2.60
2023-04-07T05:24:26.908Z,2.64
2023-04-07T05:25:31.117Z,2.65
2023-04-07T05:26:35.562Z,2.64
2023-04-07T05:27:39.331Z,2.62
2023-04-07T05:28:46.036Z,2.59
2023-04-07T05:29:52.720Z,2.58
2023-04-07T05:31:01.733Z,2.63
2023-04-07T05:32:06.460Z,2.71
2023-04-07T05:33:08.253Z,2.75
2023-04-07T05:34:25.261Z,2.63
2023-04-07T05:35:29.483Z,2.49
2023-04-07T05:36:33.821Z,2.47
2023-04-07T05:37:35.369Z,2.50
2023-04-07T05:38:39.439Z,2.47
2023-04-07T05:39:46.648Z,2.50
2023-04-07T05:40:49.340Z,2.56
2023-04-07T05:41:58.929Z,2.57
2023-04-07T05:43:01.985Z,2.59
2023-04-07T05:44:05.303Z,2.58
2023-04-07T05:45:10.231Z,2.58
2023-04-07T05:46:15.210Z,2.59
2023-04-07T05:47:25.425Z,2.61
2023-04-07T05:48:27.020Z,2.69
2023-04-07T05:49:30.110Z,2.72
2023-04-07T05:50:38.432Z,2.67
2023-04-07T05:51:43.450Z,2.56
2023-04-07T05:52:47.691Z,2.56
2023-04-07T05:53:56.979Z,2.61
2023-04-07T05:54:59.934Z,2.70
2023-04-07T05:56:04.609Z,2.71
2023-04-07T05:57:17.268Z,2.74
2023-04-07T05:58:20.714Z,2.72
2023-04-07T05:59:25.827Z,2.78
2023-04-07T06:00:27.356Z,2.80
2023-04-07T06:01:37.919Z,2.78
2023-04-07T06:02:40.044Z,2.74
2023-04-07T06:03:45.453Z,2.71
2023-04-07T06:04:56.048Z,2.75
2023-04-07T06:05:58.297Z,2.79
2023-04-07T06:07:00.152Z,2.85
2023-04-07T06:08:01.723Z,2.75
2023-04-07T06:09:04.951Z,2.71
2023-04-07T06:10:08.152Z,2.70
2023-04-07T06:11:09.652Z,2.79
2023-04-07T06:12:11.257Z,2.85
2023-04-07T06:13:13.431Z,2.90
2023-04-07T06:14:15.177Z,2.89
2023-04-07T06:15:16.822Z,2.87
2023-04-07T06:16:19.654Z,2.88
2023-04-07T06:17:21.802Z,2.60
2023-04-07T06:18:23.475Z,2.61
2023-04-07T06:19:25.038Z,2.62
2023-04-07T06:20:26.694Z,2.72
2023-04-07T06:21:28.227Z,2.72
2023-04-07T06:22:30.804Z,2.64
2023-04-07T06:23:32.342Z,2.67
2023-04-07T06:24:33.881Z,2.56
2023-04-07T06:25:35.418Z,2.62
2023-04-07T06:26:37.006Z,2.61
2023-04-07T06:27:38.527Z,2.68
2023-04-07T06:28:40.812Z,2.65
2023-04-07T06:29:42.414Z,2.62
2023-04-07T06:30:44.872Z,2.64
2023-04-07T06:31:48.010Z,2.72
2023-04-07T06:32:49.581Z,2.75
2023-04-07T06:33:51.646Z,2.81
2023-04-07T06:34:53.200Z,2.85
2023-04-07T06:35:56.257Z,2.91
2023-04-07T06:36:59.320Z,2.88
2023-04-07T06:38:01.066Z,2.93
2023-04-07T06:39:02.916Z,2.99
2023-04-07T06:40:05.377Z,3.03
2023-04-07T06:41:06.899Z,2.98
2023-04-07T06:42:08.414Z,2.92
2023-04-07T06:43:14.413Z,2.96
2023-04-07T06:44:23.125Z,2.98
2023-04-07T06:45:24.679Z,2.92
2023-04-07T06:46:26.292Z,2.99
2023-04-07T06:47:27.852Z,3.04
2023-04-07T06:48:29.456Z,3.12
2023-04-07T06:49:30.999Z,3.15
2023-04-07T06:50:32.540Z,3.21
2023-04-07T06:51:34.060Z,3.17
2023-04-07T06:52:35.557Z,3.03
2023-04-07T06:53:37.196Z,2.98
2023-04-07T06:54:38.704Z,2.93
2023-04-07T06:55:40.241Z,2.94
2023-04-07T06:56:42.531Z,2.89
2023-04-07T06:57:44.160Z,2.85
2023-04-07T06:58:45.696Z,2.85
2023-04-07T06:59:47.244Z,2.79
2023-04-07T07:00:48.746Z,2.74
2023-04-07T07:01:50.834Z,2.84
2023-04-07T07:02:52.597Z,2.89
2023-04-07T07:03:54.255Z,3.00
2023-04-07T07:04:55.845Z,3.05
2023-04-07T07:06:01.280Z,3.08
2023-04-07T07:07:02.917Z,3.15
2023-04-07T07:08:04.655Z,3.17
2023-04-07T07:09:06.204Z,3.22
2023-04-07T07:10:09.423Z,3.17
2023-04-07T07:11:10.968Z,3.16
2023-04-07T07:12:12.475Z,3.15
2023-04-07T07:13:14.198Z,3.16
2023-04-07T07:14:15.694Z,3.16
2023-04-07T07:15:17.616Z,3.02
2023-04-07T07:16:19.194Z,3.00
2023-04-07T07:17:20.775Z,2.94
2023-04-07T07:18:22.389Z,2.88
2023-04-07T07:19:23.942Z,2.85
2023-04-07T07:20:25.448Z,2.86
2023-04-07T07:21:26.986Z,2.91
2023-04-07T07:22:28.516Z,2.89
2023-04-07T07:23:30.111Z,2.87
2023-04-07T07:24:31.653Z,2.89
2023-04-07T07:25:33.196Z,2.88
2023-04-07T07:26:34.965Z,2.89
2023-04-07T07:27:36.460Z,2.95
2023-04-07T07:28:37.994Z,2.78
2023-04-07T07:29:39.542Z,2.73
2023-04-07T07:30:41.308Z,2.76
2023-04-07T07:31:43.222Z,2.72
2023-04-07T07:32:44.761Z,2.75
2023-04-07T07:33:46.514Z,2.86
2023-04-07T07:34:48.329Z,2.92
2023-04-07T07:35:49.892Z,2.98
2023-04-07T07:36:51.507Z,2.99
2023-04-07T07:37:53.131Z,2.98
2023-04-07T07:38:54.648Z,2.93
2023-04-07T07:39:56.181Z,2.86
2023-04-07T07:40:57.745Z,2.87
2023-04-07T07:41:59.292Z,2.94
2023-04-07T07:43:01.100Z,2.99
2023-04-07T07:44:02.665Z,3.01
2023-04-07T07:45:04.957Z,2.90
2023-04-07T07:46:06.544Z,2.92
2023-04-07T07:47:08.115Z,2.98
2023-04-07T07:48:09.652Z,3.05
2023-04-07T07:49:11.266Z,3.11
2023-04-07T07:50:12.842Z,3.01
2023-04-07T07:51:14.391Z,2.97
2023-04-07T07:52:15.929Z,3.08
2023-04-07T07:53:17.654Z,3.15
2023-04-07T07:54:19.202Z,3.12
2023-04-07T07:55:20.754Z,3.26
2023-04-07T07:56:22.330Z,3.28
2023-04-07T07:57:23.872Z,3.30
2023-04-07T07:58:25.369Z,3.30
2023-04-07T07:59:26.912Z,3.25
2023-04-07T08:00:28.499Z,3.23
2023-04-07T08:01:30.151Z,3.27
2023-04-07T08:02:31.852Z,3.27
2023-04-07T08:03:33.652Z,3.25
2023-04-07T08:04:36.799Z,3.25
2023-04-07T08:05:38.684Z,3.23
2023-04-07T08:06:40.216Z,3.29
2023-04-07T08:07:41.764Z,3.30
2023-04-07T08:08:43.364Z,3.29
2023-04-07T08:09:44.875Z,3.33
2023-04-07T08:10:46.458Z,3.32
2023-04-07T08:11:48.080Z,3.36
2023-04-07T08:12:49.574Z,3.44
2023-04-07T08:13:51.456Z,3.51
2023-04-07T08:14:52.999Z,3.50
2023-04-07T08:15:54.857Z,3.56
2023-04-07T08:16:56.514Z,3.54
2023-04-07T08:17:58.417Z,3.57
2023-04-07T08:18:59.985Z,3.57
2023-04-07T08:20:01.516Z,3.51
2023-04-07T08:21:05.193Z,3.54
2023-04-07T08:22:06.705Z,3.51
2023-04-07T08:23:08.281Z,3.48
2023-04-07T08:24:10.456Z,3.53
2023-04-07T08:25:12.057Z,3.52
2023-04-07T08:26:13.575Z,3.45
2023-04-07T08:27:15.088Z,3.44
2023-04-07T08:28:16.633Z,3.49
2023-04-07T08:29:18.147Z,3.53
2023-04-07T08:30:19.894Z,3.54
2023-04-07T08:31:21.643Z,3.46
2023-04-07T08:32:23.273Z,3.47
2023-04-07T08:33:26.351Z,3.52
2023-04-07T08:34:27.910Z,3.55
2023-04-07T08:35:29.424Z,3.61
2023-04-07T08:36:31.027Z,3.65
2023-04-07T08:37:33.940Z,3.72
2023-04-07T08:38:35.490Z,3.77
2023-04-07T08:39:37.023Z,3.70
2023-04-07T08:40:38.609Z,3.63
2023-04-07T08:41:41.660Z,3.57
2023-04-07T08:42:47.791Z,3.58
2023-04-07T08:43:51.541Z,3.58
2023-04-07T08:44:55.461Z,3.64
2023-04-07T08:45:57.860Z,3.63
2023-04-07T08:47:01.433Z,3.64
2023-04-07T08:48:08.824Z,3.58
2023-04-07T08:49:12.293Z,3.64
2023-04-07T08:50:16.744Z,3.62
2023-04-07T08:51:28.673Z,3.59
2023-04-07T08:52:51.145Z,3.68
2023-04-07T08:53:54.133Z,3.61
2023-04-07T08:54:55.925Z,3.60
2023-04-07T08:55:58.070Z,3.64
2023-04-07T08:56:59.833Z,3.70
2023-04-07T08:58:02.267Z,3.65
2023-04-07T08:59:06.016Z,3.59
2023-04-07T09:00:08.401Z,3.60
2023-04-07T09:01:11.327Z,3.62
2023-04-07T09:02:13.906Z,3.55
2023-04-07T09:03:19.612Z,3.60
2023-04-07T09:04:22.326Z,3.62
2023-04-07T09:05:24.567Z,3.68
2023-04-07T09:06:26.672Z,3.71
2023-04-07T09:07:28.205Z,3.68
2023-04-07T09:08:29.989Z,3.61
2023-04-07T09:09:31.490Z,3.64
2023-04-07T09:10:33.024Z,3.70
2023-04-07T09:11:39.561Z,3.77
2023-04-07T09:12:41.121Z,3.78
2023-04-07T09:13:42.761Z,3.78
2023-04-07T09:14:44.323Z,3.75
2023-04-07T09:15:46.230Z,3.77
2023-04-07T09:16:47.949Z,3.83
2023-04-07T09:17:49.679Z,3.84
2023-04-07T09:18:53.239Z,3.87
2023-04-07T09:19:58.657Z,3.79
2023-04-07T09:21:06.177Z,3.79
2023-04-07T09:22:07.768Z,3.77
2023-04-07T09:23:27.746Z,3.86
2023-04-07T09:24:30.247Z,3.89
2023-04-07T09:25:31.806Z,3.85
2023-04-07T09:26:33.355Z,3.91
2023-04-07T09:27:34.916Z,3.81
2023-04-07T09:28:43.156Z,3.65
2023-04-07T09:29:47.917Z,3.63
2023-04-07T09:30:53.695Z,3.65
2023-04-07T09:31:55.393Z,3.64
2023-04-07T09:32:58.353Z,3.73
2023-04-07T09:33:59.905Z,3.81
2023-04-07T09:35:01.681Z,3.85
2023-04-07T09:36:06.950Z,3.69
2023-04-07T09:37:08.749Z,3.71
2023-04-07T09:38:10.417Z,3.74
2023-04-07T09:39:11.924Z,3.77
2023-04-07T09:40:26.046Z,3.83
2023-04-07T09:41:28.012Z,3.89
2023-04-07T09:42:29.804Z,3.96
2023-04-07T09:43:31.368Z,4.03
2023-04-07T09:44:40.123Z,4.09
2023-04-07T09:45:41.846Z,4.08
2023-04-07T09:46:51.633Z,4.06
2023-04-07T09:47:53.746Z,4.07
2023-04-07T09:49:04.299Z,4.08
2023-04-07T09:50:06.289Z,4.12
2023-04-07T09:51:12.709Z,4.15
2023-04-07T09:52:14.273Z,4.20
2023-04-07T09:53:16.435Z,4.23
2023-04-07T09:54:32.531Z,4.24
2023-04-07T09:55:35.348Z,4.27
2023-04-07T09:56:36.976Z,4.27
2023-04-07T09:57:39.629Z,4.27
2023-04-07T09:58:41.152Z,4.29
2023-04-07T09:59:42.730Z,4.27
2023-04-07T10:00:45.258Z,4.25
2023-04-07T10:01:46.873Z,4.17
2023-04-07T10:02:48.879Z,4.19
2023-04-07T10:03:51.173Z,4.10
2023-04-07T10:04:53.163Z,4.11
2023-04-07T10:05:54.860Z,4.09
2023-04-07T10:06:57.589Z,4.10
2023-04-07T10:08:00.652Z,4.10
2023-04-07T10:09:02.409Z,4.08
2023-04-07T10:10:04.829Z,4.10
2023-04-07T10:11:06.586Z,4.16
2023-04-07T10:12:08.150Z,4.20
2023-04-07T10:13:09.917Z,4.14
2023-04-07T10:14:11.805Z,4.03
2023-04-07T10:15:13.838Z,4.03
2023-04-07T10:16:15.754Z,4.00
2023-04-07T10:17:18.270Z,4.01
2023-04-07T10:18:21.025Z,4.01
2023-04-07T10:19:23.427Z,3.97
2023-04-07T10:20:25.510Z,3.92
2023-04-07T10:21:27.393Z,3.89
2023-04-07T10:22:29.645Z,3.92
2023-04-07T10:23:43.645Z,4.01
2023-04-07T10:24:45.142Z,4.12
2023-04-07T10:25:47.517Z,4.17
2023-04-07T10:26:59.395Z,4.22
2023-04-07T10:28:06.308Z,4.17
2023-04-07T10:29:11.493Z,4.17
2023-04-07T10:30:17.027Z,4.21
2023-04-07T10:31:19.375Z,4.23
2023-04-07T10:32:21.187Z,4.22
2023-04-07T10:33:47.318Z,4.31
2023-04-07T10:34:52.258Z,4.38
2023-04-07T10:36:07.237Z,4.38
2023-04-07T10:37:10.253Z,4.39
2023-04-07T10:38:13.839Z,4.40
2023-04-07T10:39:15.589Z,4.41
2023-04-07T10:40:19.644Z,4.44
2023-04-07T10:41:40.771Z,4.44
2023-04-07T10:42:42.222Z,4.39
2023-04-07T10:43:43.744Z,4.35
2023-04-07T10:44:47.428Z,4.29
2023-04-07T10:45:49.129Z,4.31
2023-04-07T10:47:03.451Z,4.27
2023-04-07T10:48:04.969Z,4.28
2023-04-07T10:49:11.020Z,4.28
2023-04-07T10:50:23.305Z,4.27
2023-04-07T10:51:24.868Z,4.35
2023-04-07T10:52:26.429Z,4.41
2023-04-07T10:53:27.956Z,4.48
2023-04-07T10:54:29.570Z,4.50
2023-04-07T10:55:41.719Z,4.57
2023-04-07T10:57:14.346Z,4.58
2023-04-07T10:58:24.278Z,4.63
2023-04-07T10:59:25.854Z,4.59
2023-04-07T11:00:27.370Z,4.58
2023-04-07T11:01:29.006Z,4.60
2023-04-07T11:02:31.110Z,4.60
2023-04-07T11:03:34.999Z,4.63
2023-04-07T11:04:38.157Z,4.57
2023-04-07T11:05:43.501Z,4.56
2023-04-07T11:06:48.194Z,4.56
2023-04-07T11:07:54.200Z,4.50
2023-04-07T11:08:55.898Z,4.54
2023-04-07T11:10:17.861Z,4.61
2023-04-07T11:11:40.417Z,4.62
2023-04-07T11:12:42.890Z,4.60
2023-04-07T11:13:51.318Z,4.62
2023-04-07T11:14:53.106Z,4.67
2023-04-07T11:15:54.729Z,4.62
2023-04-07T11:16:56.995Z,4.61
2023-04-07T11:18:18.997Z,4.69
2023-04-07T11:19:20.435Z,4.76
2023-04-07T11:20:22.020Z,4.83
2023-04-07T11:21:23.644Z,4.78
2023-04-07T11:22:29.871Z,4.80
2023-04-07T11:23:42.440Z,4.75
2023-04-07T11:24:45.782Z,4.67
2023-04-07T11:25:49.757Z,4.63
2023-04-07T11:26:51.398Z,4.60
2023-04-07T11:27:53.010Z,4.60
2023-04-07T11:28:55.871Z,4.64
2023-04-07T11:29:57.496Z,4.66
2023-04-07T11:30:59.135Z,4.73
2023-04-07T11:32:02.307Z,4.75
2023-04-07T11:33:04.457Z,4.68
2023-04-07T11:34:06.025Z,4.68
2023-04-07T11:35:08.010Z,4.66
2023-04-07T11:36:09.608Z,4.68
2023-04-07T11:37:26.895Z,4.62
2023-04-07T11:38:30.541Z,4.68
2023-04-07T11:39:32.123Z,4.74
2023-04-07T11:40:35.963Z,4.69
2023-04-07T11:41:46.631Z,4.72
2023-04-07T11:42:48.188Z,4.67
2023-04-07T11:43:50.030Z,4.69
2023-04-07T11:44:51.660Z,4.61
2023-04-07T11:46:08.460Z,4.68
2023-04-07T11:47:10.183Z,4.62
2023-04-07T11:48:29.062Z,4.57
2023-04-07T11:49:30.773Z,4.56
2023-04-07T11:50:39.955Z,4.51
2023-04-07T11:51:44.449Z,4.56
2023-04-07T11:52:48.322Z,4.63
2023-04-07T11:53:56.914Z,4.64
2023-04-07T11:54:58.585Z,4.57
2023-04-07T11:56:10.847Z,4.55
2023-04-07T11:57:13.250Z,4.48
2023-04-07T11:58:14.911Z,4.38
2023-04-07T11:59:25.949Z,4.40
2023-04-07T12:00:27.513Z,4.41
2023-04-07T12:01:41.390Z,4.41
2023-04-07T12:02:43.081Z,4.49
2023-04-07T12:04:04.601Z,4.46
2023-04-07T12:05:07.458Z,4.48
2023-04-07T12:06:09.138Z,4.51
2023-04-07T12:07:11.607Z,4.49
2023-04-07T12:08:15.877Z,4.45
2023-04-07T12:09:27.572Z,4.45
2023-04-07T12:10:29.070Z,4.49
2023-04-07T12:11:30.773Z,4.50
2023-04-07T12:12:32.359Z,4.56
2023-04-07T12:13:34.746Z,4.54
2023-04-07T12:14:37.319Z,4.55
2023-04-07T12:15:38.828Z,4.63
2023-04-07T12:16:40.430Z,4.62
2023-04-07T12:17:49.049Z,4.64
2023-04-07T12:18:50.809Z,4.65
2023-04-07T12:19:53.262Z,4.63
2023-04-07T12:20:55.064Z,4.58
2023-04-07T12:21:57.064Z,4.56
2023-04-07T12:22:58.981Z,4.57
2023-04-07T12:24:00.554Z,4.60
2023-04-07T12:25:02.062Z,4.62
2023-04-07T12:26:03.728Z,4.57
2023-04-07T12:28:06.806Z,4.54
2023-04-07T12:29:08.318Z,4.56
2023-04-07T12:30:10.308Z,4.55
2023-04-07T12:31:11.878Z,4.51
2023-04-07T12:32:13.459Z,4.57
2023-04-07T12:33:15.064Z,4.59
2023-04-07T12:34:16.592Z,4.49
2023-04-07T12:35:18.197Z,4.47
2023-04-07T12:36:19.725Z,4.48
2023-04-07T12:37:21.263Z,4.45
2023-04-07T12:38:22.818Z,4.45
2023-04-07T12:39:24.347Z,4.45
2023-04-07T12:40:25.871Z,4.47
2023-04-07T12:41:27.654Z,4.49
2023-04-07T12:42:29.234Z,4.55
2023-04-07T12:43:31.056Z,4.57
2023-04-07T12:44:32.592Z,4.58
2023-04-07T12:45:34.161Z,4.57
2023-04-07T12:46:35.722Z,4.58
2023-04-07T12:47:37.383Z,4.54
2023-04-07T12:48:38.986Z,4.48
2023-04-07T12:49:40.542Z,4.50
2023-04-07T12:50:42.104Z,4.48
2023-04-07T12:51:43.724Z,4.48
2023-04-07T12:52:45.236Z,4.45
2023-04-07T12:53:47.007Z,4.46
2023-04-07T12:54:48.724Z,4.47
2023-04-07T12:55:50.607Z,4.43
2023-04-07T12:56:52.235Z,4.40
2023-04-07T12:57:53.769Z,4.48
2023-04-07T12:58:55.344Z,4.55
2023-04-07T12:59:56.883Z,4.58
2023-04-07T13:00:58.481Z,4.57
2023-04-07T13:02:00.302Z,4.66
2023-04-07T13:03:02.118Z,4.60
2023-04-07T13:04:03.977Z,4.66
2023-04-07T13:05:05.705Z,4.75
2023-04-07T13:06:07.236Z,4.81
2023-04-07T13:07:08.902Z,4.78
2023-04-07T13:08:10.583Z,4.72
2023-04-07T13:09:12.122Z,4.68
2023-04-07T13:10:13.661Z,4.75
2023-04-07T13:11:15.222Z,4.74
2023-04-07T13:12:16.733Z,4.78
2023-04-07T13:13:18.269Z,4.82
2023-04-07T13:14:19.881Z,4.78
2023-04-07T13:15:21.457Z,4.82
2023-04-07T13:16:23.030Z,4.85
2023-04-07T13:17:24.622Z,4.85
2023-04-07T13:18:26.235Z,4.79
2023-04-07T13:19:27.744Z,4.70
2023-04-07T13:20:29.381Z,4.63
2023-04-07T13:22:36.035Z,4.71
2023-04-07T13:23:43.138Z,4.76
2023-04-07T13:24:45.106Z,4.73
2023-04-07T13:25:46.633Z,4.74
2023-04-07T13:26:48.219Z,4.68
2023-04-07T13:27:49.751Z,4.67
2023-04-07T13:28:51.297Z,4.70
2023-04-07T13:29:53.009Z,4.57
2023-04-07T13:30:54.594Z,4.52
2023-04-07T13:32:09.621Z,4.57
2023-04-07T13:33:11.105Z,4.63
2023-04-07T13:34:13.280Z,4.69
2023-04-07T13:35:18.126Z,4.62
2023-04-07T13:36:21.222Z,4.64
2023-04-07T13:37:24.556Z,4.56
2023-04-07T13:38:26.062Z,4.56
2023-04-07T13:39:27.576Z,4.61
2023-04-07T13:40:29.374Z,4.64
2023-04-07T13:41:30.933Z,4.66
2023-04-07T13:42:32.580Z,4.71
2023-04-07T13:43:34.082Z,4.71
2023-04-07T13:44:35.609Z,4.69
2023-04-07T13:45:37.513Z,4.67
2023-04-07T13:46:39.107Z,4.47
2023-04-07T13:47:40.683Z,4.45
2023-04-07T13:48:42.247Z,4.50
2023-04-07T13:49:43.777Z,4.52
2023-04-07T13:50:45.305Z,4.52
2023-04-07T13:51:46.851Z,4.51
2023-04-07T13:52:48.374Z,4.51
2023-04-07T13:53:50.137Z,4.49
2023-04-07T13:54:51.942Z,4.41
2023-04-07T13:55:53.507Z,4.35
2023-04-07T13:56:55.041Z,4.38
2023-04-07T13:57:56.538Z,4.39
2023-04-07T13:58:58.089Z,4.39
2023-04-07T13:59:59.640Z,4.39
2023-04-07T14:01:01.543Z,4.37
2023-04-07T14:02:03.189Z,4.38
2023-04-07T14:03:04.917Z,4.41
2023-04-07T14:04:06.991Z,4.44
2023-04-07T14:05:08.772Z,4.38
2023-04-07T14:06:10.342Z,4.41
2023-04-07T14:07:12.043Z,4.45
2023-04-07T14:08:13.870Z,4.49
2023-04-07T14:09:15.392Z,4.50
2023-04-07T14:10:17.169Z,4.52
2023-04-07T14:11:19.559Z,4.53
2023-04-07T14:12:21.165Z,4.58